Aérodrome :
LOGIN :

S'inscrire | Disclaimer

   EN    FR    IT 

 










Légende :    VFR   VFR Marginal   IFR   IFR Intensif   IFR Très Intensif
Visi : 
Plafond : 
>= 8 km
>= 3000ft
5 à 8 km
1000 à 3000 ft
1500m à 5 km
500 à 1000 ft
800 à 1500m
200 à 500 ft
< 800m
< 200 ft
Symboles :   Orages  Brouillard  Fortes neiges  Fortes précipitations  Vent > 20 kt
SIGMETs :   Divers  Orages  Givrage  Turbulence  Onde Orograph.  Cendres Volcan.







- Altitude de l'aérodrome : 162 ft
- Code IATA : BOD
- Voir les cartes d'approche


LFBD - Bordeaux / Merignac

DERNIER METAR :
  • 211000Z AUTO 09010KT 050V130 CAVOK 26/10 Q1021 NOSIG

METARs EXPIRÉS :
  • 210930Z AUTO 09011KT 060V130 CAVOK 25/10 Q1021 NOSIG
  • 210900Z AUTO 11009KT 9999 FEW011 24/10 Q1022 NOSIG
  • 210830Z AUTO 10008KT 070V130 CAVOK 23/10 Q1022 NOSIG
  • 210800Z AUTO 11007KT 080V140 CAVOK 22/11 Q1022 NOSIG
  • 210730Z AUTO 10005KT CAVOK 20/11 Q1022 NOSIG

TAF TAF LFBD
Valide du 21 à 06h jusqu'au 22 à 12h UTC


210500Z 2106/2212 02004KT CAVOK
BECMG 2108/2110 08010KT TX32/2115Z TN14/2106Z
ATIS : +33 5 57 92 81 04
Pas de NOTAMs connus pour ce terrain.



MET'MAP, la Météo Aéronautique d'un coup d'oeil ! - Copyright ORBIFLY Décembre 2007 - Disclaimer

ORBIFLY MET'MAP TEAM :

Programmation & Développement : Alexandra Zaïnal
Conception & Développement : Baudouin d'Aumeries
Co-Programmation & Développement : Marc-Olivier Méhu
Soutien technique & logistique : Manuel Goepfert

Contact : metmap@orbifly.com




SOURCES & CREDITS :

   NOAA